createdAt,value
2023-12-30T00:00:31.729Z,49.57
2023-12-30T00:01:31.734Z,49.15
2023-12-30T00:02:31.781Z,48.61
2023-12-30T00:03:31.769Z,48.69
2023-12-30T00:04:31.701Z,48.41
2023-12-30T00:05:31.655Z,48.82
2023-12-30T00:06:31.651Z,48.94
2023-12-30T00:07:31.628Z,48.72
2023-12-30T00:08:31.664Z,48.52
2023-12-30T00:09:31.656Z,48.52
2023-12-30T00:10:31.604Z,48.52
2023-12-30T00:11:31.570Z,48.41
2023-12-30T00:12:31.522Z,49.69
2023-12-30T00:13:31.588Z,50.10
2023-12-30T00:14:31.489Z,50.32
2023-12-30T00:15:31.513Z,50.73
2023-12-30T00:16:31.505Z,50.50
2023-12-30T00:17:31.622Z,50.17
2023-12-30T00:18:31.521Z,49.79
2023-12-30T00:19:31.519Z,50.40
2023-12-30T00:20:31.447Z,50.50
2023-12-30T00:21:31.456Z,50.50
2023-12-30T00:22:31.402Z,49.97
2023-12-30T00:23:37.489Z,49.35
2023-12-30T00:24:32.356Z,49.15
2023-12-30T00:25:31.411Z,49.24
2023-12-30T00:26:31.339Z,49.24
2023-12-30T00:27:31.496Z,49.24
2023-12-30T00:28:31.333Z,49.02
2023-12-30T00:29:31.343Z,49.24
2023-12-30T00:30:31.368Z,49.02
2023-12-30T00:31:31.331Z,49.04
2023-12-30T00:32:31.248Z,49.77
2023-12-30T00:33:33.022Z,49.97
2023-12-30T00:34:31.398Z,49.67
2023-12-30T00:35:31.249Z,49.65
2023-12-30T00:36:31.235Z,49.67
2023-12-30T00:37:31.198Z,49.85
2023-12-30T00:38:31.194Z,49.42
2023-12-30T00:39:31.229Z,48.92
2023-12-30T00:40:31.215Z,49.22
2023-12-30T00:41:31.163Z,49.35
2023-12-30T00:42:31.212Z,49.44
2023-12-30T00:43:31.205Z,49.55
2023-12-30T00:44:31.102Z,49.22
2023-12-30T00:45:31.159Z,49.12
2023-12-30T00:46:31.177Z,48.69
2023-12-30T00:47:31.109Z,49.35
2023-12-30T00:48:31.064Z,49.97
2023-12-30T00:49:31.129Z,50.48
2023-12-30T00:50:31.088Z,50.17
2023-12-30T00:51:31.038Z,50.07
2023-12-30T00:52:31.070Z,50.78
2023-12-30T00:53:31.051Z,50.70
2023-12-30T00:54:37.986Z,50.90
2023-12-30T00:55:32.019Z,50.70
2023-12-30T00:56:31.073Z,50.90
2023-12-30T00:57:30.977Z,50.80
2023-12-30T00:58:30.909Z,51.64
2023-12-30T00:59:30.940Z,51.43
2023-12-30T01:00:30.901Z,51.96
2023-12-30T01:01:30.938Z,52.06
2023-12-30T01:02:30.887Z,52.59
2023-12-30T01:03:30.977Z,52.79
2023-12-30T01:04:30.925Z,52.89
2023-12-30T01:05:30.917Z,52.89
2023-12-30T01:06:30.815Z,52.47
2023-12-30T01:07:30.833Z,52.47
2023-12-30T01:08:30.866Z,53.22
2023-12-30T01:09:30.795Z,53.42
2023-12-30T01:10:30.763Z,53.30
2023-12-30T01:11:30.771Z,53.30
2023-12-30T01:12:30.737Z,53.09
2023-12-30T01:13:30.809Z,53.30
2023-12-30T01:14:30.756Z,53.40
2023-12-30T01:15:30.738Z,53.72
2023-12-30T01:16:30.745Z,53.93
2023-12-30T01:17:30.707Z,53.80
2023-12-30T01:18:30.806Z,53.72
2023-12-30T01:19:30.730Z,54.03
2023-12-30T01:20:30.599Z,54.76
2023-12-30T01:21:30.722Z,55.82
2023-12-30T01:22:30.638Z,56.96
2023-12-30T01:23:30.593Z,56.73
2023-12-30T01:24:30.616Z,58.00
2023-12-30T01:25:30.811Z,58.71
2023-12-30T01:26:30.560Z,58.61
2023-12-30T01:27:30.606Z,58.58
2023-12-30T01:28:30.701Z,58.18
2023-12-30T01:29:30.651Z,59.12
2023-12-30T01:30:30.655Z,59.42
2023-12-30T01:31:30.528Z,59.72
2023-12-30T01:32:30.567Z,60.30
2023-12-30T01:33:30.791Z,60.03
2023-12-30T01:34:30.487Z,60.10
2023-12-30T01:35:30.409Z,60.17
2023-12-30T01:36:30.454Z,61.35
2023-12-30T01:37:30.518Z,62.21
2023-12-30T01:38:30.399Z,62.69
2023-12-30T01:39:30.499Z,62.29
2023-12-30T01:40:30.437Z,62.66
2023-12-30T01:41:30.527Z,62.46
2023-12-30T01:42:30.313Z,62.15
2023-12-30T01:43:30.447Z,61.92
2023-12-30T01:44:30.306Z,62.59
2023-12-30T01:45:30.367Z,63.83
2023-12-30T01:46:30.359Z,63.50
2023-12-30T01:47:30.336Z,62.56
2023-12-30T01:48:30.309Z,62.56
2023-12-30T01:49:30.306Z,62.43
2023-12-30T01:50:30.197Z,62.02
2023-12-30T01:51:30.290Z,61.32
2023-12-30T01:52:30.383Z,61.62
2023-12-30T01:53:30.282Z,62.05
2023-12-30T01:54:30.168Z,61.99
2023-12-30T01:55:30.212Z,62.02
2023-12-30T01:56:30.114Z,62.15
2023-12-30T01:57:30.212Z,62.26
2023-12-30T01:58:30.168Z,62.76
2023-12-30T01:59:30.109Z,62.56
2023-12-30T02:00:30.071Z,62.43
2023-12-30T02:01:30.226Z,62.43
2023-12-30T02:02:40.210Z,61.25
2023-12-30T02:03:30.035Z,60.65
2023-12-30T02:04:30.058Z,61.82
2023-12-30T02:05:38.570Z,61.79
2023-12-30T02:06:29.970Z,61.59
2023-12-30T02:07:30.014Z,62.23
2023-12-30T02:08:29.992Z,61.49
2023-12-30T02:09:29.948Z,61.59
2023-12-30T02:10:37.473Z,63.04
2023-12-30T02:11:36.925Z,61.66
2023-12-30T02:12:37.440Z,61.90
2023-12-30T02:13:29.908Z,61.25
2023-12-30T02:14:29.921Z,61.08
2023-12-30T02:15:37.375Z,62.33
2023-12-30T02:16:37.381Z,62.07
2023-12-30T02:17:30.010Z,62.73
2023-12-30T02:18:29.875Z,63.27
2023-12-30T02:19:29.888Z,63.13
2023-12-30T02:20:29.817Z,62.19
2023-12-30T02:21:29.785Z,62.23
2023-12-30T02:22:29.761Z,63.07
2023-12-30T02:23:29.746Z,63.57
2023-12-30T02:24:29.762Z,63.57
2023-12-30T02:25:40.044Z,62.14
2023-12-30T02:26:37.283Z,60.80
2023-12-30T02:27:29.722Z,61.90
2023-12-30T02:28:29.744Z,63.07
2023-12-30T02:29:29.681Z,63.78
2023-12-30T02:30:29.712Z,63.47
2023-12-30T02:31:29.745Z,63.04
2023-12-30T02:32:29.620Z,62.93
2023-12-30T02:33:29.760Z,63.27
2023-12-30T02:34:29.683Z,63.90
2023-12-30T02:35:29.611Z,64.85
2023-12-30T02:36:29.551Z,64.64
2023-12-30T02:37:29.650Z,64.21
2023-12-30T02:38:29.572Z,63.37
2023-12-30T02:39:29.586Z,63.98
2023-12-30T02:40:29.697Z,64.85
2023-12-30T02:41:29.513Z,65.56
2023-12-30T02:42:29.508Z,65.99
2023-12-30T02:43:29.585Z,66.09
2023-12-30T02:44:29.454Z,65.99
2023-12-30T02:45:29.531Z,66.09
2023-12-30T02:46:29.506Z,65.22
2023-12-30T02:47:29.437Z,64.48
2023-12-30T02:48:29.454Z,64.69
2023-12-30T02:49:29.481Z,63.78
2023-12-30T02:50:29.433Z,64.38
2023-12-30T02:51:29.412Z,64.92
2023-12-30T02:52:29.420Z,64.28
2023-12-30T02:53:29.405Z,64.61
2023-12-30T02:54:29.359Z,64.85
2023-12-30T02:55:29.442Z,65.05
2023-12-30T02:56:29.319Z,64.82
2023-12-30T02:57:29.344Z,64.72
2023-12-30T02:58:29.327Z,64.72
2023-12-30T02:59:29.341Z,65.66
2023-12-30T03:00:29.249Z,65.42
2023-12-30T03:01:29.321Z,65.66
2023-12-30T03:02:29.210Z,66.16
2023-12-30T03:03:29.231Z,65.86
2023-12-30T03:04:29.360Z,66.03
2023-12-30T03:05:29.424Z,66.27
2023-12-30T03:06:29.193Z,66.47
2023-12-30T03:07:29.266Z,67.18
2023-12-30T03:08:29.127Z,66.24
2023-12-30T03:09:29.093Z,66.24
2023-12-30T03:10:29.347Z,66.57
2023-12-30T03:11:29.170Z,67.28
2023-12-30T03:12:29.178Z,67.51
2023-12-30T03:13:29.133Z,67.18
2023-12-30T03:14:29.066Z,67.28
2023-12-30T03:15:29.202Z,67.14
2023-12-30T03:16:29.080Z,66.64
2023-12-30T03:17:29.125Z,67.28
2023-12-30T03:18:29.162Z,66.88
2023-12-30T03:19:29.103Z,67.82
2023-12-30T03:20:28.987Z,67.79
2023-12-30T03:21:28.971Z,67.11
2023-12-30T03:22:28.970Z,65.16
2023-12-30T03:23:28.992Z,65.90
2023-12-30T03:24:28.910Z,65.73
2023-12-30T03:25:28.992Z,66.94
2023-12-30T03:26:28.912Z,66.33
2023-12-30T03:27:28.932Z,66.77
2023-12-30T03:28:29.093Z,66.77
2023-12-30T03:29:28.875Z,67.18
2023-12-30T03:30:28.883Z,67.28
2023-12-30T03:31:29.180Z,67.18
2023-12-30T03:32:28.864Z,66.30
2023-12-30T03:33:28.934Z,66.44
2023-12-30T03:34:28.856Z,66.94
2023-12-30T03:35:28.878Z,66.10
2023-12-30T03:36:28.817Z,65.80
2023-12-30T03:37:28.831Z,66.10
2023-12-30T03:38:28.812Z,66.33
2023-12-30T03:39:28.749Z,66.03
2023-12-30T03:40:28.851Z,66.10
2023-12-30T03:41:28.720Z,65.29
2023-12-30T03:42:28.718Z,64.99
2023-12-30T03:43:28.693Z,64.76
2023-12-30T03:44:28.700Z,64.48
2023-12-30T03:45:28.615Z,64.55
2023-12-30T03:46:28.631Z,63.95
2023-12-30T03:47:28.664Z,64.89
2023-12-30T03:48:28.640Z,64.79
2023-12-30T03:49:28.885Z,64.58
2023-12-30T03:50:28.663Z,65.12
2023-12-30T03:51:28.569Z,65.62
2023-12-30T03:52:28.666Z,65.09
2023-12-30T03:53:28.583Z,65.56
2023-12-30T03:54:28.518Z,65.86
2023-12-30T03:55:28.537Z,65.96
2023-12-30T03:56:28.508Z,65.32
2023-12-30T03:57:28.429Z,64.58
2023-12-30T03:58:28.567Z,64.18
2023-12-30T03:59:28.498Z,64.48
2023-12-30T04:00:28.427Z,64.21
2023-12-30T04:01:28.524Z,64.51
2023-12-30T04:02:28.488Z,64.18
2023-12-30T04:03:28.453Z,63.21
2023-12-30T04:04:28.410Z,62.63
2023-12-30T04:05:28.395Z,64.07
2023-12-30T04:06:28.369Z,63.10
2023-12-30T04:07:28.433Z,62.60
2023-12-30T04:08:28.366Z,63.34
2023-12-30T04:09:28.301Z,62.93
2023-12-30T04:10:28.344Z,63.87
2023-12-30T04:11:28.324Z,63.47
2023-12-30T04:12:28.292Z,63.57
2023-12-30T04:13:28.348Z,64.28
2023-12-30T04:14:28.235Z,63.87
2023-12-30T04:15:28.217Z,63.87
2023-12-30T04:16:28.275Z,62.81
2023-12-30T04:17:28.275Z,62.73
2023-12-30T04:18:28.230Z,62.93
2023-12-30T04:19:28.253Z,63.13
2023-12-30T04:20:28.232Z,64.01
2023-12-30T04:21:28.131Z,63.87
2023-12-30T04:22:28.161Z,63.67
2023-12-30T04:23:28.123Z,64.21
2023-12-30T04:24:28.055Z,64.58
2023-12-30T04:25:28.036Z,63.01
2023-12-30T04:26:28.015Z,62.27
2023-12-30T04:27:28.045Z,61.56
2023-12-30T04:28:28.030Z,62.19
2023-12-30T04:29:28.027Z,62.57
2023-12-30T04:30:28.001Z,61.46
2023-12-30T04:31:28.087Z,61.56
2023-12-30T04:32:28.034Z,62.16
2023-12-30T04:33:28.037Z,62.33
2023-12-30T04:34:27.982Z,63.57
2023-12-30T04:35:28.044Z,63.27
2023-12-30T04:36:27.977Z,63.04
2023-12-30T04:37:28.030Z,62.90
2023-12-30T04:38:27.864Z,62.10
2023-12-30T04:39:27.934Z,63.13
2023-12-30T04:40:27.903Z,63.54
2023-12-30T04:41:27.933Z,62.37
2023-12-30T04:42:27.883Z,61.99
2023-12-30T04:43:27.918Z,62.23
2023-12-30T04:44:27.942Z,62.47
2023-12-30T04:45:27.888Z,61.96
2023-12-30T04:46:28.004Z,61.87
2023-12-30T04:47:27.902Z,61.96
2023-12-30T04:48:28.046Z,61.59
2023-12-30T04:49:27.910Z,62.60
2023-12-30T04:50:27.737Z,61.99
2023-12-30T04:51:27.716Z,62.40
2023-12-30T04:52:27.787Z,62.07
2023-12-30T04:53:27.679Z,61.90
2023-12-30T04:54:27.758Z,62.07
2023-12-30T04:55:27.851Z,61.66
2023-12-30T04:56:27.653Z,61.87
2023-12-30T04:57:27.672Z,61.99
2023-12-30T04:58:27.703Z,61.76
2023-12-30T04:59:27.612Z,61.56
2023-12-30T05:00:27.788Z,62.07
2023-12-30T05:01:27.693Z,61.69
2023-12-30T05:02:27.554Z,61.87
2023-12-30T05:03:27.670Z,61.46
2023-12-30T05:04:27.555Z,61.66
2023-12-30T05:05:27.580Z,60.93
2023-12-30T05:06:27.547Z,61.05
2023-12-30T05:07:27.544Z,61.25
2023-12-30T05:08:27.467Z,61.76
2023-12-30T05:09:27.474Z,61.25
2023-12-30T05:10:27.467Z,61.56
2023-12-30T05:11:27.435Z,61.69
2023-12-30T05:12:27.460Z,61.33
2023-12-30T05:13:27.418Z,60.93
2023-12-30T05:14:27.385Z,60.72
2023-12-30T05:15:27.378Z,60.82
2023-12-30T05:16:27.427Z,60.09
2023-12-30T05:17:27.461Z,59.58
2023-12-30T05:18:27.481Z,59.78
2023-12-30T05:19:27.447Z,60.09
2023-12-30T05:20:27.334Z,60.62
2023-12-30T05:21:27.315Z,60.12
2023-12-30T05:22:27.420Z,60.96
2023-12-30T05:23:27.372Z,60.82
2023-12-30T05:24:27.317Z,60.75
2023-12-30T05:25:27.265Z,60.72
2023-12-30T05:26:27.226Z,60.42
2023-12-30T05:27:27.197Z,60.09
2023-12-30T05:28:27.235Z,59.56
2023-12-30T05:29:27.249Z,60.22
2023-12-30T05:30:27.334Z,60.12
2023-12-30T05:31:27.204Z,60.19
2023-12-30T05:32:27.166Z,59.61
2023-12-30T05:33:27.180Z,60.32
2023-12-30T05:34:27.198Z,60.32
2023-12-30T05:35:27.073Z,60.22
2023-12-30T05:36:27.183Z,59.48
2023-12-30T05:37:27.137Z,59.45
2023-12-30T05:38:27.079Z,58.29
2023-12-30T05:39:27.007Z,58.01
2023-12-30T05:40:27.034Z,58.75
2023-12-30T05:41:27.077Z,58.65
2023-12-30T05:42:27.003Z,58.32
2023-12-30T05:43:27.416Z,57.91
2023-12-30T05:44:26.940Z,58.67
2023-12-30T05:45:27.044Z,59.28
2023-12-30T05:46:27.009Z,58.95
2023-12-30T05:47:26.963Z,58.54
2023-12-30T05:48:27.132Z,58.85
2023-12-30T05:49:27.014Z,58.42
2023-12-30T05:50:26.872Z,57.78
2023-12-30T05:51:26.880Z,57.28
2023-12-30T05:52:26.899Z,57.68
2023-12-30T05:53:26.832Z,57.91
2023-12-30T05:54:26.821Z,57.91
2023-12-30T05:55:26.936Z,58.01
2023-12-30T05:56:26.791Z,58.12
2023-12-30T05:57:26.878Z,58.22
2023-12-30T05:58:26.772Z,58.01
2023-12-30T05:59:26.778Z,58.25
2023-12-30T06:00:26.805Z,58.98
2023-12-30T06:01:26.898Z,59.71
2023-12-30T06:02:26.747Z,60.25
2023-12-30T06:03:26.739Z,60.52
2023-12-30T06:04:26.695Z,59.38
2023-12-30T06:05:26.715Z,59.25
2023-12-30T06:06:28.811Z,58.65
2023-12-30T06:07:26.729Z,57.94
2023-12-30T06:08:26.703Z,58.45
2023-12-30T06:09:26.626Z,58.54
2023-12-30T06:10:26.644Z,58.78
2023-12-30T06:11:26.586Z,58.87
2023-12-30T06:12:26.706Z,59.21
2023-12-30T06:13:26.569Z,60.35
2023-12-30T06:14:26.606Z,60.05
2023-12-30T06:15:26.638Z,59.51
2023-12-30T06:16:26.545Z,59.18
2023-12-30T06:17:26.536Z,59.08
2023-12-30T06:18:26.760Z,58.87
2023-12-30T06:19:26.558Z,59.11
2023-12-30T06:20:26.452Z,59.61
2023-12-30T06:21:26.408Z,59.81
2023-12-30T06:22:26.507Z,59.94
2023-12-30T06:23:26.389Z,59.71
2023-12-30T06:24:26.358Z,59.84
2023-12-30T06:25:26.427Z,59.51
2023-12-30T06:26:26.389Z,59.41
2023-12-30T06:27:26.370Z,59.28
2023-12-30T06:28:26.439Z,58.14
2023-12-30T06:29:26.755Z,58.67
2023-12-30T06:30:26.428Z,58.70
2023-12-30T06:31:26.330Z,59.94
2023-12-30T06:32:26.410Z,59.71
2023-12-30T06:33:26.544Z,59.41
2023-12-30T06:34:26.371Z,59.41
2023-12-30T06:35:26.237Z,59.41
2023-12-30T06:36:26.230Z,59.84
2023-12-30T06:37:26.252Z,59.64
2023-12-30T06:38:26.235Z,59.74
2023-12-30T06:39:26.257Z,59.41
2023-12-30T06:40:26.224Z,58.91
2023-12-30T06:41:26.172Z,59.51
2023-12-30T06:42:26.279Z,59.51
2023-12-30T06:43:26.232Z,59.11
2023-12-30T06:44:26.106Z,59.23
2023-12-30T06:45:26.160Z,59.14
2023-12-30T06:46:26.210Z,59.31
2023-12-30T06:47:26.140Z,59.11
2023-12-30T06:48:26.177Z,59.51
2023-12-30T06:49:26.246Z,59.11
2023-12-30T06:50:26.058Z,59.74
2023-12-30T06:51:26.027Z,59.97
2023-12-30T06:52:26.070Z,59.94
2023-12-30T06:53:26.045Z,60.14
2023-12-30T06:54:26.054Z,59.41
2023-12-30T06:55:31.874Z,58.91
2023-12-30T06:56:27.105Z,58.07
2023-12-30T06:57:26.016Z,58.17
2023-12-30T06:58:26.030Z,58.17
2023-12-30T06:59:25.915Z,58.60
2023-12-30T07:00:26.079Z,58.70
2023-12-30T07:01:26.013Z,58.60
2023-12-30T07:02:25.972Z,58.70
2023-12-30T07:03:26.036Z,59.44
2023-12-30T07:04:25.905Z,59.23
2023-12-30T07:05:25.904Z,59.97
2023-12-30T07:06:25.931Z,59.23
2023-12-30T07:07:25.864Z,59.34
2023-12-30T07:08:25.837Z,59.23
2023-12-30T07:09:25.826Z,59.34
2023-12-30T07:10:25.887Z,58.80
2023-12-30T07:11:25.745Z,58.37
2023-12-30T07:12:25.753Z,58.09
2023-12-30T07:13:25.804Z,57.87
2023-12-30T07:14:25.754Z,57.34
2023-12-30T07:15:25.702Z,57.14
2023-12-30T07:16:25.808Z,57.46
2023-12-30T07:17:25.745Z,57.87
2023-12-30T07:18:35.492Z,56.55
2023-12-30T07:19:25.711Z,56.27
2023-12-30T07:20:25.701Z,56.50
2023-12-30T07:21:32.664Z,56.63
2023-12-30T07:22:25.676Z,57.36
2023-12-30T07:23:25.607Z,58.00
2023-12-30T07:24:33.136Z,58.60
2023-12-30T07:25:34.929Z,56.77
2023-12-30T07:26:32.761Z,56.07
2023-12-30T07:27:25.537Z,56.52
2023-12-30T07:28:25.597Z,57.26
2023-12-30T07:29:25.558Z,57.79
2023-12-30T07:30:25.565Z,59.14
2023-12-30T07:31:25.544Z,58.93
2023-12-30T07:32:25.502Z,59.03
2023-12-30T07:33:25.613Z,59.03
2023-12-30T07:34:25.546Z,58.60
2023-12-30T07:35:25.408Z,58.50
2023-12-30T07:36:25.407Z,58.43
2023-12-30T07:37:25.613Z,59.03
2023-12-30T07:38:25.475Z,58.93
2023-12-30T07:39:25.399Z,59.27
2023-12-30T07:40:25.426Z,59.77
2023-12-30T07:41:25.325Z,59.54
2023-12-30T07:42:25.351Z,59.64
2023-12-30T07:43:25.637Z,59.64
2023-12-30T07:44:25.330Z,60.17
2023-12-30T07:45:25.286Z,59.84
2023-12-30T07:46:32.372Z,57.71
2023-12-30T07:47:25.319Z,58.50
2023-12-30T07:48:25.343Z,60.20
2023-12-30T07:49:25.388Z,61.01
2023-12-30T07:50:25.208Z,60.98
2023-12-30T07:51:25.206Z,60.58
2023-12-30T07:52:25.254Z,60.35
2023-12-30T07:53:25.148Z,60.05
2023-12-30T07:54:25.123Z,60.45
2023-12-30T07:55:25.210Z,60.55
2023-12-30T07:56:25.140Z,60.14
2023-12-30T07:57:25.137Z,60.68
2023-12-30T07:58:25.184Z,60.35
2023-12-30T07:59:25.113Z,59.91
2023-12-30T08:00:25.099Z,58.98
2023-12-30T08:01:25.101Z,59.74
2023-12-30T08:02:25.153Z,61.19
2023-12-30T08:03:25.062Z,61.29
2023-12-30T08:04:25.118Z,60.85
2023-12-30T08:05:25.078Z,60.85
2023-12-30T08:06:24.977Z,59.69
2023-12-30T08:07:25.083Z,58.75
2023-12-30T08:08:24.984Z,59.28
2023-12-30T08:09:24.979Z,60.05
2023-12-30T08:10:24.960Z,60.62
2023-12-30T08:11:24.964Z,60.22
2023-12-30T08:12:24.894Z,60.62
2023-12-30T08:13:24.955Z,60.62
2023-12-30T08:14:24.852Z,60.09
2023-12-30T08:15:24.862Z,59.45
2023-12-30T08:16:24.876Z,59.02
2023-12-30T08:17:24.938Z,58.82
2023-12-30T08:18:24.905Z,58.92
2023-12-30T08:19:24.884Z,59.02
2023-12-30T08:20:24.853Z,58.75
2023-12-30T08:21:24.784Z,59.25
2023-12-30T08:22:24.787Z,59.25
2023-12-30T08:23:24.801Z,59.45
2023-12-30T08:24:24.879Z,59.89
2023-12-30T08:25:24.800Z,60.19
2023-12-30T08:26:24.820Z,59.76
2023-12-30T08:27:24.726Z,59.56
2023-12-30T08:28:24.705Z,59.76
2023-12-30T08:29:24.780Z,59.78
2023-12-30T08:30:24.985Z,60.72
2023-12-30T08:31:24.673Z,60.93
2023-12-30T08:32:24.651Z,60.29
2023-12-30T08:33:24.796Z,60.69
2023-12-30T08:34:24.658Z,59.86
2023-12-30T08:35:24.639Z,59.73
2023-12-30T08:36:24.632Z,59.33
2023-12-30T08:37:24.625Z,59.00
2023-12-30T08:38:24.644Z,58.89
2023-12-30T08:39:24.569Z,58.49
2023-12-30T08:40:24.606Z,58.92
2023-12-30T08:41:24.580Z,58.89
2023-12-30T08:42:24.517Z,58.49
2023-12-30T08:43:24.514Z,58.69
2023-12-30T08:44:24.487Z,58.39
2023-12-30T08:45:24.448Z,58.49
2023-12-30T08:46:24.613Z,58.69
2023-12-30T08:47:24.513Z,58.09
2023-12-30T08:48:24.616Z,58.29
2023-12-30T08:49:45.489Z,57.65
2023-12-30T08:50:24.441Z,57.45
2023-12-30T08:51:24.449Z,57.56
2023-12-30T08:52:24.385Z,57.65
2023-12-30T08:53:24.395Z,57.76
2023-12-30T08:54:24.341Z,57.53
2023-12-30T08:55:24.485Z,57.35
2023-12-30T08:56:24.307Z,57.35
2023-12-30T08:57:24.280Z,58.29
2023-12-30T08:58:24.328Z,57.89
2023-12-30T08:59:24.282Z,57.56
2023-12-30T09:00:24.256Z,57.25
2023-12-30T09:01:24.317Z,56.95
2023-12-30T09:02:24.248Z,57.98
2023-12-30T09:03:24.388Z,57.89
2023-12-30T09:04:24.344Z,57.86
2023-12-30T09:05:24.244Z,57.53
2023-12-30T09:06:24.246Z,57.23
2023-12-30T09:07:24.258Z,57.35
2023-12-30T09:08:24.143Z,57.76
2023-12-30T09:09:24.176Z,57.03
2023-12-30T09:10:24.182Z,57.03
2023-12-30T09:11:24.213Z,57.25
2023-12-30T09:12:24.066Z,57.03
2023-12-30T09:13:24.235Z,57.68
2023-12-30T09:14:24.061Z,58.09
2023-12-30T09:15:24.059Z,57.65
2023-12-30T09:16:24.163Z,57.45
2023-12-30T09:17:24.105Z,57.45
2023-12-30T09:18:24.113Z,57.56
2023-12-30T09:19:24.239Z,58.29
2023-12-30T09:20:24.009Z,57.86
2023-12-30T09:21:24.024Z,57.58
2023-12-30T09:22:24.032Z,58.06
2023-12-30T09:23:23.940Z,57.98
2023-12-30T09:24:23.938Z,58.36
2023-12-30T09:25:24.148Z,57.96
2023-12-30T09:26:23.942Z,57.10
2023-12-30T09:27:23.986Z,56.90
2023-12-30T09:28:23.913Z,56.92
2023-12-30T09:29:23.850Z,56.92
2023-12-30T09:30:23.869Z,57.56
2023-12-30T09:31:23.961Z,57.68
2023-12-30T09:32:23.880Z,57.86
2023-12-30T09:33:23.903Z,57.23
2023-12-30T09:34:33.584Z,57.23
2023-12-30T09:35:24.932Z,57.23
2023-12-30T09:36:23.818Z,56.85
2023-12-30T09:37:23.996Z,58.09
2023-12-30T09:38:24.794Z,57.45
2023-12-30T09:39:23.722Z,57.68
2023-12-30T09:40:23.823Z,57.89
2023-12-30T09:41:23.790Z,57.98
2023-12-30T09:42:23.862Z,57.98
2023-12-30T09:43:23.735Z,57.25
2023-12-30T09:44:23.658Z,58.12
2023-12-30T09:45:23.656Z,58.49
2023-12-30T09:46:23.715Z,57.98
2023-12-30T09:47:23.740Z,57.35
2023-12-30T09:48:23.708Z,56.95
2023-12-30T09:49:23.669Z,56.92
2023-12-30T09:50:23.598Z,56.60
2023-12-30T09:51:23.594Z,55.66
2023-12-30T09:52:23.648Z,55.91
2023-12-30T09:53:23.593Z,56.32
2023-12-30T09:54:31.387Z,55.99
2023-12-30T09:55:24.612Z,56.55
2023-12-30T09:56:23.514Z,56.95
2023-12-30T09:57:23.460Z,56.85
2023-12-30T09:58:23.944Z,56.82
2023-12-30T09:59:23.459Z,56.42
2023-12-30T10:00:23.458Z,56.85
2023-12-30T10:01:23.723Z,56.65
2023-12-30T10:02:23.470Z,56.62
2023-12-30T10:03:23.493Z,56.12
2023-12-30T10:04:23.436Z,57.05
2023-12-30T10:05:23.439Z,57.12
2023-12-30T10:06:23.526Z,56.82
2023-12-30T10:07:23.372Z,56.29
2023-12-30T10:08:23.350Z,55.59
2023-12-30T10:09:23.307Z,55.59
2023-12-30T10:10:23.313Z,55.31
2023-12-30T10:11:23.304Z,56.55
2023-12-30T10:12:23.317Z,56.65
2023-12-30T10:13:23.668Z,57.18
2023-12-30T10:14:23.226Z,57.58
2023-12-30T10:15:23.323Z,57.38
2023-12-30T10:16:23.434Z,56.65
2023-12-30T10:17:23.258Z,56.02
2023-12-30T10:18:23.384Z,55.91
2023-12-30T10:19:23.359Z,55.71
2023-12-30T10:20:23.165Z,55.51
2023-12-30T10:21:23.179Z,55.31
2023-12-30T10:22:23.231Z,55.24
2023-12-30T10:23:23.124Z,56.07
2023-12-30T10:24:23.092Z,55.51
2023-12-30T10:25:23.153Z,55.94
2023-12-30T10:26:23.120Z,55.11
2023-12-30T10:27:23.170Z,54.50
2023-12-30T10:28:23.083Z,55.01
2023-12-30T10:29:23.136Z,54.41
2023-12-30T10:30:23.055Z,53.95
2023-12-30T10:31:23.129Z,53.05
2023-12-30T10:32:23.530Z,53.27
2023-12-30T10:33:23.134Z,52.84
2023-12-30T10:34:23.037Z,52.87
2023-12-30T10:35:24.285Z,53.40
2023-12-30T10:36:23.080Z,53.07
2023-12-30T10:37:23.112Z,53.40
2023-12-30T10:38:22.920Z,53.09
2023-12-30T10:39:22.921Z,53.50
2023-12-30T10:40:22.971Z,53.75
2023-12-30T10:41:22.980Z,53.52
2023-12-30T10:42:22.853Z,53.30
2023-12-30T10:43:22.968Z,53.07
2023-12-30T10:44:22.913Z,51.71
2023-12-30T10:45:22.828Z,51.06
2023-12-30T10:46:22.881Z,50.66
2023-12-30T10:47:22.915Z,50.05
2023-12-30T10:48:22.789Z,50.46
2023-12-30T10:49:23.006Z,50.35
2023-12-30T10:50:22.819Z,49.62
2023-12-30T10:51:22.764Z,49.80
2023-12-30T10:52:22.793Z,50.56
2023-12-30T10:53:22.732Z,51.16
2023-12-30T10:54:22.730Z,51.16
2023-12-30T10:55:22.813Z,50.93
2023-12-30T10:56:22.720Z,50.20
2023-12-30T10:57:22.686Z,51.48
2023-12-30T10:58:22.759Z,50.96
2023-12-30T10:59:22.620Z,49.90
2023-12-30T11:00:22.700Z,50.13
2023-12-30T11:01:22.661Z,50.50
2023-12-30T11:02:22.635Z,50.50
2023-12-30T11:03:22.722Z,51.35
2023-12-30T11:04:22.651Z,51.43
2023-12-30T11:05:22.753Z,50.57
2023-12-30T11:06:22.673Z,49.67
2023-12-30T11:07:22.630Z,49.02
2023-12-30T11:08:22.564Z,49.29
2023-12-30T11:09:22.527Z,50.73
2023-12-30T11:10:22.511Z,50.32
2023-12-30T11:11:22.474Z,49.99
2023-12-30T11:12:22.543Z,49.59
2023-12-30T11:13:22.526Z,50.22
2023-12-30T11:14:22.409Z,50.02
2023-12-30T11:15:22.415Z,50.12
2023-12-30T11:16:22.417Z,50.02
2023-12-30T11:17:22.420Z,49.82
2023-12-30T11:18:22.569Z,49.59
2023-12-30T11:19:22.549Z,49.72
2023-12-30T11:20:22.363Z,49.29
2023-12-30T11:21:22.474Z,49.19
2023-12-30T11:22:22.347Z,49.59
2023-12-30T11:23:22.294Z,49.92
2023-12-30T11:24:22.278Z,50.22
2023-12-30T11:25:22.415Z,49.82
2023-12-30T11:26:22.257Z,50.02
2023-12-30T11:27:22.302Z,49.29
2023-12-30T11:28:22.377Z,49.49
2023-12-30T11:29:22.409Z,50.12
2023-12-30T11:30:22.198Z,49.79
2023-12-30T11:31:22.242Z,48.86
2023-12-30T11:32:22.289Z,49.79
2023-12-30T11:33:22.287Z,49.62
2023-12-30T11:34:22.229Z,50.24
2023-12-30T11:35:22.222Z,50.12
2023-12-30T11:36:22.123Z,50.02
2023-12-30T11:37:22.174Z,49.16
2023-12-30T11:38:22.137Z,48.89
2023-12-30T11:39:22.185Z,49.11
2023-12-30T11:40:22.171Z,48.79
2023-12-30T11:41:22.052Z,47.96
2023-12-30T11:42:30.187Z,48.28
2023-12-30T11:43:23.056Z,48.08
2023-12-30T11:44:22.025Z,47.75
2023-12-30T11:45:22.106Z,48.18
2023-12-30T11:46:22.033Z,48.49
2023-12-30T11:47:22.025Z,48.14
2023-12-30T11:48:22.039Z,47.61
2023-12-30T11:49:22.058Z,47.43
2023-12-30T11:50:21.899Z,46.91
2023-12-30T11:51:22.024Z,46.78
2023-12-30T11:52:21.902Z,46.08
2023-12-30T11:53:21.964Z,46.50
2023-12-30T11:54:21.858Z,47.13
2023-12-30T11:55:21.879Z,47.27
2023-12-30T11:56:21.847Z,48.41
2023-12-30T11:57:21.900Z,48.18
2023-12-30T11:58:21.989Z,47.88
2023-12-30T11:59:21.869Z,47.47
2023-12-30T12:00:21.805Z,47.58
2023-12-30T12:01:21.853Z,47.25
2023-12-30T12:02:21.804Z,46.53
2023-12-30T12:03:21.788Z,47.35
2023-12-30T12:04:21.962Z,46.28
2023-12-30T12:05:21.820Z,45.65
2023-12-30T12:06:21.833Z,45.23
2023-12-30T12:07:21.716Z,45.05
2023-12-30T12:08:21.714Z,44.77
2023-12-30T12:09:21.700Z,45.74
2023-12-30T12:10:21.712Z,46.57
2023-12-30T12:11:21.701Z,45.59
2023-12-30T12:12:21.656Z,45.50
2023-12-30T12:13:21.681Z,44.85
2023-12-30T12:14:21.764Z,45.07
2023-12-30T12:15:21.682Z,45.57
2023-12-30T12:16:21.684Z,45.57
2023-12-30T12:17:21.701Z,45.25
2023-12-30T12:18:21.743Z,45.15
2023-12-30T12:19:21.615Z,44.73
2023-12-30T12:20:21.899Z,44.83
2023-12-30T12:21:21.613Z,44.53
2023-12-30T12:22:21.533Z,44.31
2023-12-30T12:23:21.505Z,44.31
2023-12-30T12:24:21.518Z,44.00
2023-12-30T12:25:21.592Z,44.12
2023-12-30T12:26:21.485Z,44.65
2023-12-30T12:27:21.493Z,44.97
2023-12-30T12:28:21.560Z,45.07
2023-12-30T12:29:21.402Z,45.05
2023-12-30T12:30:21.437Z,45.70
2023-12-30T12:31:21.483Z,45.57
2023-12-30T12:32:21.378Z,44.97
2023-12-30T12:33:21.519Z,45.50
2023-12-30T12:34:21.437Z,45.92
2023-12-30T12:35:21.407Z,45.70
2023-12-30T12:36:21.337Z,45.70
2023-12-30T12:37:21.322Z,45.27
2023-12-30T12:38:21.305Z,45.27
2023-12-30T12:39:21.311Z,45.07
2023-12-30T12:40:21.356Z,44.97
2023-12-30T12:41:21.281Z,45.05
2023-12-30T12:42:27.757Z,44.15
2023-12-30T12:43:22.338Z,44.79
2023-12-30T12:44:21.294Z,45.54
2023-12-30T12:45:21.314Z,46.17
2023-12-30T12:46:21.226Z,46.87
2023-12-30T12:47:21.213Z,46.77
2023-12-30T12:48:21.409Z,46.77
2023-12-30T12:49:21.247Z,46.45
2023-12-30T12:50:21.169Z,46.25
2023-12-30T12:51:21.187Z,45.50
2023-12-30T12:52:21.188Z,45.72